TAF Text Data
IDs:
Format:
Raw Decoded Include METAR

Data at: 1130 UTC 23 Jun 2021

KRKD 231120Z 2312/2412 30004KT P6SM SKC
  FM231800 24011KT P6SM SKC